Flight Track Log - Related Links

Times and Time Zones

All times are in EDT time to prevent confusion due to time zone crossing. See the N700QA flight status page for this flight to view local times or setup timezone preferences in your user account.

Time Position Orientation Groundspeed Altitude Reporting Facility
EDT Latitude Longitude Course Direction KTS MPH feet Rate Location/Type
Fri 08:47:00 PM 36.0325 -115.2770 180° South  Level Estimated
Fri 08:48:27 PM 36.0458 -115.1764 180° South 178 205 3,700  Level Los Angeles Center
Fri 08:49:19 PM 35.9967 -115.2103 209° Southwest 213 245 5,600 1,984 Climbing Los Angeles Center
Fri 08:50:31 PM 35.9339 -115.2325 196° South 221 254 7,800 2,104 Climbing Los Angeles Center
Fri 08:51:33 PM 35.8478 -115.2519 190° South 245 282 10,300 2,323 Climbing Los Angeles Center
Fri 08:52:35 PM 35.7708 -115.2700 191° South 262 302 12,600 2,177 Climbing Los Angeles Center
Fri 08:53:37 PM 35.6886 -115.2922 192° South 287 330 14,800 2,146 Climbing Los Angeles Center
Fri 08:54:52 PM 35.6153 -115.3803 224° Southwest 301 346 17,500 2,146 Climbing Los Angeles Center
Fri 08:55:54 PM 35.5550 -115.4575 226° Southwest 309 356 19,700 1,790 Climbing Los Angeles Center
Fri 08:56:56 PM 35.4931 -115.5411 228° Southwest 321 369 21,200 1,403 Climbing Los Angeles Center
Fri 08:57:58 PM 35.4247 -115.6331 228° Southwest 350 403 22,600 1,268 Climbing Los Angeles Center
Fri 08:58:59 PM 35.3564 -115.7239 227° Southwest 361 415 23,800 732 Climbing Los Angeles Center
Fri 09:00:01 PM 35.2672 -115.8422 227° Southwest 391 450 24,100 145 Climbing Los Angeles Center
Fri 09:01:03 PM 35.1892 -115.9433 227° Southwest 405 466 24,100  Level Los Angeles Center
Fri 09:02:05 PM 35.1100 -116.0464 227° Southwest 411 473 24,100  Level Los Angeles Center
Fri 09:03:07 PM 35.0314 -116.1483 227° Southwest 413 475 24,100  Level Los Angeles Center
Fri 09:04:09 PM 34.9561 -116.2508 228° Southwest 410 472 24,100  Level Los Angeles Center
Fri 09:05:11 PM 34.8767 -116.3528 226° Southwest 412 474 24,100  Level Los Angeles Center
Fri 09:06:13 PM 34.7983 -116.4550 227° Southwest 412 474 24,100  Level Los Angeles Center
Fri 09:07:15 PM 34.7017 -116.5744 225° Southwest 413 475 24,100 -97 Level Los Angeles Center
Fri 09:08:17 PM 34.6211 -116.6725 225° Southwest 409 471 23,900 -1,016 Descending Los Angeles Center
Fri 09:09:19 PM 34.5469 -116.7603 224° Southwest 375 432 22,000 -1,984 Descending Los Angeles Center
Fri 09:10:21 PM 34.4786 -116.8458 226° Southwest 356 410 19,800 -2,323 Descending Los Angeles Center
Fri 09:11:23 PM 34.4167 -116.9308 229° Southwest 339 390 17,200 -2,439 Descending Los Angeles Center
Fri 09:12:24 PM 34.3503 -117.0069 223° Southwest 328 377 14,800 -2,293 Descending Los Angeles Center
Fri 09:13:26 PM 34.2867 -117.0803 224° Southwest 318 366 12,500 -2,129 Descending Los Angeles Center
Fri 09:14:28 PM 34.2175 -117.1669 226° Southwest 299 344 10,400 -1,742 Descending Los Angeles Center
Fri 09:15:30 PM 34.1544 -117.2122 211° Southwest 278 320 8,900 -1,615 Descending Los Angeles Center
Fri 09:16:12 PM 34.1000 -117.2500 210° Southwest 258 297 7,600 -2,000 Descending Southern California TRACON
Fri 09:17:06 PM 34.0667 -117.2833 220° Southwest 232 267 5,700 -1,684 Descending Southern California TRACON
Fri 09:18:06 PM 34.0500 -117.3500 253° West 197 227 4,400 -1,050 Descending Southern California TRACON
Fri 09:19:06 PM 34.0500 -117.4167 270° West 194 223 3,600 -952 Descending Southern California TRACON
Fri 09:20:12 PM 34.0500 -117.4833 270° West 189 217 2,400 -950 Descending Southern California TRACON
Fri 09:21:06 PM 34.0500 -117.5333 270° West 147 169 1,700 -778 Descending Southern California TRACON
Fri 09:23:00 PM 34.0500 -117.6000 270° West  Level FlightAware Approximate
Fri 09:30:00 PM 34.0560 -117.6012 270° West  Level Estimated

Login

Don't have an account? Register now (free) for customized features, flight alerts, and more!